Time;durP1;ratioP1;P1;durP2;ratioP2;P2;SDS_P1;SDS_P2;PMS_P1;PMS_P2;Temp;Humidity;BMP_temperature;BMP_pressure;BME280_temperature;BME280_humidity;BME280_pressure;Samples;Min_cycle;Max_cycle;Signal;HPM_P1;HPM_P2
2022/02/13 00:00:30;;;;;;;5.23;4.60;;;4.30;96.70;;;;;;4967944;28;20902;-90
2022/02/13 00:03:17;;;;;;;4.40;3.37;;;4.50;96.60;;;;;;4955721;29;20488;-90
2022/02/13 00:05:58;;;;;;;7.40;4.57;;;4.40;96.40;;;;;;4965098;28;20512;-87
2022/02/13 00:08:55;;;;;;;;;;;;;;;;;;;;;
2022/02/13 00:12:26;;;;;;;7.00;4.80;;;4.50;96.00;;;;;;4958557;29;20466;-88
2022/02/13 00:14:56;;;;;;;7.43;4.40;;;4.50;95.80;;;;;;4960151;28;20843;-86
2022/02/13 00:17:41;;;;;;;6.20;4.17;;;4.50;96.00;;;;;;4962140;29;20465;-88
2022/02/13 00:20:28;;;;;;;5.27;4.20;;;4.50;95.90;;;;;;4964323;28;20528;-87
2022/02/13 00:23:09;;;;;;;8.23;4.03;;;4.40;96.00;;;;;;4972274;28;20528;-86
2022/02/13 00:25:46;;;;;;;4.93;3.77;;;4.30;96.20;;;;;;4977092;28;20991;-88
2022/02/13 00:28:19;;;;;;;11.73;4.53;;;4.30;96.20;;;;;;4967178;28;20561;-85
2022/02/13 00:31:31;;;;;;;7.47;4.40;;;4.30;96.30;;;;;;4967522;29;20459;-87
2022/02/13 00:34:13;;;;;;;5.50;4.00;;;4.30;96.30;;;;;;4965604;28;20470;-86
2022/02/13 00:36:58;;;;;;;;;;;;;;;;;;;;;
2022/02/13 00:39:38;;;;;;;6.23;4.33;;;4.30;96.60;;;;;;4966953;28;20498;-88
2022/02/13 00:42:14;;;;;;;6.43;4.70;;;4.30;96.60;;;;;;4984711;28;20457;-88
2022/02/13 00:45:02;;;;;;;7.43;4.60;;;4.20;96.70;;;;;;4983953;28;20571;-87
2022/02/13 00:47:44;;;;;;;7.57;4.80;;;4.20;96.80;;;;;;4974011;29;20474;-88
2022/02/13 00:50:21;;;;;;;8.33;4.60;;;4.10;96.80;;;;;;4994012;28;20487;-85
2022/02/13 00:52:53;;;;;;;4.73;3.73;;;4.20;96.90;;;;;;4980604;28;20561;-89
2022/02/13 00:55:49;;;;;;;6.33;5.17;;;4.20;96.80;;;;;;4978468;28;20461;-88
2022/02/13 00:58:33;;;;;;;6.87;3.93;;;4.20;96.70;;;;;;4974018;28;20763;-90
2022/02/13 01:01:22;;;;;;;6.30;4.57;;;4.20;96.80;;;;;;4972086;28;20460;-88
2022/02/13 01:04:18;;;;;;;5.37;4.17;;;4.20;97.10;;;;;;4953854;28;20556;-84
2022/02/13 01:06:51;;;;;;;3.70;3.20;;;4.20;96.60;;;;;;4958530;29;20466;-87
2022/02/13 01:09:34;;;;;;;6.30;4.13;;;4.10;96.60;;;;;;4958494;29;20486;-86
2022/02/13 01:12:18;;;;;;;5.27;4.63;;;4.00;96.80;;;;;;4964839;28;20463;-89
2022/02/13 01:15:05;;;;;;;6.57;3.83;;;4.10;97.10;;;;;;4964321;28;20442;-88
2022/02/13 01:17:58;;;;;;;6.13;4.80;;;4.10;96.80;;;;;;4963211;28;20465;-89
2022/02/13 01:20:59;;;;;;;5.20;4.53;;;4.10;97.10;;;;;;4958984;28;20462;-87
2022/02/13 01:23:40;;;;;;;7.77;4.10;;;4.00;97.00;;;;;;4972110;28;20496;-85
2022/02/13 01:26:41;;;;;;;7.60;4.60;;;4.20;96.90;;;;;;4963860;28;20475;-85
2022/02/13 01:29:23;;;;;;;4.83;4.10;;;4.20;96.80;;;;;;4997445;23;21036;-90
2022/02/13 01:32:04;;;;;;;7.40;4.60;;;4.20;96.90;;;;;;4885566;29;20462;-88
2022/02/13 01:35:01;;;;;;;5.20;4.57;;;4.20;97.00;;;;;;4901692;29;20488;-87
2022/02/13 01:37:53;;;;;;;4.70;4.10;;;4.10;97.00;;;;;;4902497;29;20464;-87
2022/02/13 01:40:49;;;;;;;5.73;4.73;;;4.10;96.90;;;;;;4869774;29;20453;-88
2022/02/13 01:43:27;;;;;;;4.97;4.03;;;4.00;96.90;;;;;;4875569;29;20452;-86
2022/02/13 01:46:32;;;;;;;7.13;4.40;;;4.00;97.30;;;;;;4885861;29;20529;-86
2022/02/13 01:49:22;;;;;;;4.53;3.80;;;4.20;97.00;;;;;;4864307;29;20485;-85
2022/02/13 01:55:20;;;;;;;6.80;5.37;;;4.10;97.20;;;;;;4880285;29;20456;-85
2022/02/13 01:58:12;;;;;;;4.97;3.77;;;4.10;97.20;;;;;;4892371;23;20460;-84
2022/02/13 02:00:49;;;;;;;6.57;4.67;;;4.10;97.10;;;;;;4961898;28;20469;-85
2022/02/13 02:03:34;;;;;;;5.70;3.60;;;4.10;97.10;;;;;;4957921;28;20468;-87
2022/02/13 02:06:16;;;;;;;5.23;4.30;;;4.00;96.50;;;;;;4968010;28;21108;-84
2022/02/13 02:09:27;;;;;;;6.53;3.87;;;4.00;96.40;;;;;;4965017;28;20488;-85
2022/02/13 02:15:20;;;;;;;;;;;;;;;;;;;;;
2022/02/13 02:18:00;;;;;;;6.93;3.60;;;3.80;96.60;;;;;;4957928;28;20490;-86
2022/02/13 02:20:44;;;;;;;4.30;3.90;;;3.90;96.90;;;;;;4959507;28;20526;-87
2022/02/13 02:24:03;;;;;;;4.63;3.90;;;3.90;96.70;;;;;;4958541;28;20468;-86
2022/02/13 02:26:43;;;;;;;6.70;4.80;;;3.90;96.80;;;;;;4952341;29;20460;-89
2022/02/13 02:29:21;;;;;;;3.27;2.93;;;3.80;96.80;;;;;;4959644;29;20538;-88
2022/02/13 02:32:16;;;;;;;;;;;;;;;;;;;;;
2022/02/13 02:34:55;;;;;;;8.80;4.97;;;3.80;97.00;;;;;;4958405;28;20472;-87
2022/02/13 02:37:46;;;;;;;5.70;3.90;;;3.80;97.10;;;;;;4954779;29;20449;-86
2022/02/13 02:40:33;;;;;;;6.07;4.33;;;3.90;96.80;;;;;;4941438;29;20480;-87
2022/02/13 02:43:17;;;;;;;5.10;4.40;;;3.80;97.00;;;;;;4957908;28;20457;-86
2022/02/13 02:46:03;;;;;;;5.13;3.90;;;3.80;96.80;;;;;;4957991;28;20639;-88
2022/02/13 02:48:49;;;;;;;7.40;5.00;;;3.70;96.80;;;;;;4955812;29;20483;-87
2022/02/13 02:51:25;;;;;;;4.93;4.40;;;3.60;97.20;;;;;;4955768;29;20564;-86
2022/02/13 02:54:02;;;;;;;7.50;4.87;;;3.70;97.10;;;;;;4958435;28;20468;-86
2022/02/13 02:57:04;;;;;;;9.33;5.13;;;3.80;96.70;;;;;;4957165;28;20959;-89
2022/02/13 02:59:46;;;;;;;6.30;4.73;;;3.70;96.80;;;;;;4957405;29;20527;-87
2022/02/13 03:02:27;;;;;;;5.80;4.30;;;3.70;97.00;;;;;;4960532;29;20475;-86
2022/02/13 03:05:02;;;;;;;3.30;2.80;;;3.60;96.90;;;;;;4952887;28;20515;-86
2022/02/13 03:07:36;;;;;;;8.30;4.77;;;3.60;96.90;;;;;;4958699;28;20464;-88
2022/02/13 03:10:19;;;;;;;8.17;5.53;;;3.30;97.10;;;;;;4965407;28;21069;-87
2022/02/13 03:12:58;;;;;;;3.90;3.50;;;3.30;97.70;;;;;;4962233;28;20467;-87
2022/02/13 03:16:08;;;;;;;5.33;4.23;;;3.50;97.40;;;;;;4956371;28;20523;-86
2022/02/13 03:18:46;;;;;;;5.17;4.23;;;3.40;97.40;;;;;;4976989;28;20516;-86
2022/02/13 03:21:35;;;;;;;7.93;5.20;;;3.50;97.40;;;;;;4958504;29;20460;-87
2022/02/13 03:24:38;;;;;;;;;;;;;;;;;;;;;
2022/02/13 03:27:24;;;;;;;;;;;;;;;;;;;;;
2022/02/13 03:30:20;;;;;;;5.20;4.33;;;3.40;98.10;;;;;;4961486;28;21111;-86
2022/02/13 03:33:20;;;;;;;6.50;4.30;;;3.40;98.00;;;;;;4966858;29;20457;-86
2022/02/13 03:36:09;;;;;;;5.73;5.10;;;3.50;98.20;;;;;;4963647;28;20468;-86
2022/02/13 03:38:54;;;;;;;6.10;4.33;;;3.40;98.40;;;;;;4965196;29;20509;-86
2022/02/13 03:41:33;;;;;;;9.03;4.60;;;3.40;98.20;;;;;;4961564;29;20461;-87
2022/02/13 03:44:29;;;;;;;6.73;4.83;;;3.30;98.10;;;;;;4968521;28;20468;-88
2022/02/13 03:47:08;;;;;;;6.57;4.00;;;3.20;98.10;;;;;;4961875;29;20453;-88
2022/02/13 03:49:45;;;;;;;6.10;4.93;;;3.20;98.20;;;;;;4960005;28;20489;-86
2022/02/13 03:52:37;;;;;;;5.83;4.53;;;3.10;98.10;;;;;;4969454;28;20449;-87
2022/02/13 03:55:16;;;;;;;5.90;3.40;;;3.20;98.40;;;;;;4965159;28;20480;-87
2022/02/13 03:57:46;;;;;;;7.83;4.87;;;3.10;97.90;;;;;;4961675;29;20457;-88
2022/02/13 04:00:34;;;;;;;6.80;4.43;;;3.20;97.80;;;;;;4964447;28;20470;-86
2022/02/13 04:03:21;;;;;;;6.60;4.53;;;3.30;97.60;;;;;;4961858;28;20559;-85
2022/02/13 04:05:55;;;;;;;9.77;4.03;;;3.20;97.80;;;;;;4960026;28;20484;-88
2022/02/13 04:08:40;;;;;;;8.53;4.97;;;3.30;97.90;;;;;;4962918;28;20516;-86
2022/02/13 04:11:41;;;;;;;6.60;4.70;;;3.30;97.80;;;;;;4966313;28;20567;-89
2022/02/13 04:14:30;;;;;;;3.70;3.33;;;3.30;97.50;;;;;;4963195;28;20477;-86
2022/02/13 04:17:23;;;;;;;4.73;4.10;;;3.30;97.40;;;;;;4975863;28;20472;-88
2022/02/13 04:26:11;;;;;;;5.33;4.60;;;3.40;96.80;;;;;;4958685;29;20474;-89
2022/02/13 04:28:48;;;;;;;5.40;4.33;;;3.40;96.70;;;;;;4972739;28;20483;-88
2022/02/13 04:31:40;;;;;;;4.57;3.20;;;3.20;97.10;;;;;;4916887;29;20457;-90
2022/02/13 04:34:36;;;;;;;5.93;4.20;;;3.30;96.70;;;;;;4924300;29;20459;-89
2022/02/13 04:37:39;;;;;;;6.90;3.93;;;3.20;96.70;;;;;;4920016;29;20456;-90
2022/02/13 04:40:15;;;;;;;8.63;4.27;;;3.30;96.80;;;;;;4914703;29;20482;-88
2022/02/13 04:42:52;;;;;;;7.23;4.57;;;3.20;96.80;;;;;;4905494;29;20508;-88
2022/02/13 04:45:24;;;;;;;5.40;4.23;;;3.30;96.70;;;;;;4913940;29;20518;-87
2022/02/13 04:48:07;;;;;;;7.33;4.60;;;3.30;96.60;;;;;;4896305;29;20466;-86
2022/02/13 04:50:51;;;;;;;5.27;4.27;;;3.30;97.00;;;;;;4899824;29;20451;-88
2022/02/13 04:53:18;;;;;;;11.67;5.13;;;3.20;97.30;;;;;;4917524;29;20444;-89
2022/02/13 04:55:57;;;;;;;10.87;5.67;;;3.10;97.50;;;;;;4898716;29;20483;-88
2022/02/13 04:58:37;;;;;;;4.73;4.13;;;3.00;97.50;;;;;;4903419;29;20482;-90
2022/02/13 05:01:15;;;;;;;4.13;3.10;;;3.00;97.70;;;;;;4898671;29;20451;-89
2022/02/13 05:03:59;;;;;;;6.47;4.77;;;3.10;97.80;;;;;;4901843;29;20440;-90
2022/02/13 05:06:32;;;;;;;6.30;5.00;;;3.10;97.70;;;;;;4916394;29;20554;-90
2022/02/13 05:09:11;;;;;;;8.10;5.20;;;3.00;97.70;;;;;;5011857;23;20492;-89
2022/02/13 05:12:00;;;;;;;7.73;4.70;;;2.90;97.90;;;;;;4960453;28;20468;-86
2022/02/13 05:14:37;;;;;;;7.70;4.80;;;3.20;97.60;;;;;;4967386;28;20478;-89
2022/02/13 05:17:13;;;;;;;5.40;4.30;;;3.20;97.10;;;;;;4969672;28;20450;-86
2022/02/13 05:19:50;;;;;;;6.37;4.00;;;3.10;97.20;;;;;;4980115;28;21015;-86
2022/02/13 05:22:49;;;;;;;5.70;5.03;;;3.10;97.20;;;;;;4972947;28;20466;-87
2022/02/13 05:25:37;;;;;;;4.40;4.00;;;3.00;97.20;;;;;;4965647;28;20488;-87
2022/02/13 05:28:23;;;;;;;5.00;4.43;;;3.00;97.60;;;;;;4964876;28;20485;-88
2022/02/13 05:31:01;;;;;;;7.93;4.67;;;3.00;97.60;;;;;;4972631;28;20473;-87
2022/02/13 05:33:34;;;;;;;5.87;4.33;;;3.00;97.60;;;;;;4972001;28;20450;-86
2022/02/13 05:36:22;;;;;;;6.87;4.80;;;3.10;97.70;;;;;;4966951;28;20468;-85
2022/02/13 05:39:15;;;;;;;7.40;4.93;;;3.10;97.80;;;;;;4964378;28;20481;-85
2022/02/13 05:41:57;;;;;;;9.03;5.10;;;3.10;97.60;;;;;;4986581;28;20484;-90
2022/02/13 05:44:40;;;;;;;7.07;4.27;;;3.00;97.60;;;;;;4981965;28;20480;-88
2022/02/13 05:47:12;;;;;;;7.83;5.40;;;2.90;98.10;;;;;;4980412;28;20476;-86
2022/02/13 05:49:45;;;;;;;7.50;5.80;;;2.90;98.20;;;;;;4935657;29;20464;-87
2022/02/13 05:52:40;;;;;;;5.90;4.70;;;2.90;98.30;;;;;;4922090;29;20446;-89
2022/02/13 05:55:12;;;;;;;6.43;4.73;;;2.90;98.20;;;;;;4943536;29;20459;-88
2022/02/13 05:57:54;;;;;;;6.27;5.20;;;2.90;98.40;;;;;;4921007;29;20443;-89
2022/02/13 06:00:30;;;;;;;7.97;4.80;;;2.90;98.40;;;;;;4920289;29;20534;-89
2022/02/13 06:03:19;;;;;;;6.07;4.40;;;2.70;98.90;;;;;;4931227;29;20498;-88
2022/02/13 06:06:23;;;;;;;8.20;5.20;;;2.80;98.90;;;;;;4924870;29;20621;-88
2022/02/13 06:09:41;;;;;;;5.93;4.50;;;2.80;99.00;;;;;;4977199;28;20485;-87
2022/02/13 06:12:16;;;;;;;6.20;4.67;;;2.90;99.20;;;;;;4978748;28;20459;-85
2022/02/13 06:15:18;;;;;;;6.60;5.10;;;2.90;99.60;;;;;;4989251;28;20878;-88
2022/02/13 06:17:55;;;;;;;6.90;4.90;;;2.70;99.10;;;;;;4987363;28;20471;-87
2022/02/13 06:20:41;;;;;;;6.10;4.63;;;2.80;99.20;;;;;;4969088;28;20456;-86
2022/02/13 06:23:16;;;;;;;6.57;5.30;;;2.90;98.70;;;;;;4974091;28;20465;-86
2022/02/13 06:25:58;;;;;;;5.83;4.53;;;2.90;98.70;;;;;;4989592;28;20484;-87
2022/02/13 06:28:44;;;;;;;6.33;5.30;;;2.80;98.90;;;;;;4972329;28;20484;-87
2022/02/13 06:31:20;;;;;;;9.43;5.53;;;2.80;99.00;;;;;;4968755;28;20468;-87
2022/02/13 06:33:59;;;;;;;7.47;5.50;;;2.80;99.10;;;;;;4961688;28;20543;-87
2022/02/13 06:39:54;;;;;;;10.77;5.00;;;2.80;99.20;;;;;;4965477;28;20487;-88
2022/02/13 06:42:36;;;;;;;7.57;5.50;;;2.90;99.00;;;;;;4965672;28;20461;-86
2022/02/13 06:45:24;;;;;;;7.73;4.80;;;3.00;99.00;;;;;;4980917;28;20555;-88
2022/02/13 06:48:15;;;;;;;6.37;5.40;;;3.00;98.90;;;;;;4958112;29;20459;-86
2022/02/13 06:50:48;;;;;;;9.63;3.70;;;2.90;98.80;;;;;;4980181;28;20481;-86
2022/02/13 06:53:26;;;;;;;5.40;4.83;;;3.00;98.60;;;;;;4959469;28;20459;-85
2022/02/13 06:56:26;;;;;;;7.43;4.63;;;2.90;98.70;;;;;;4947566;29;20456;-88
2022/02/13 06:59:02;;;;;;;8.20;5.53;;;2.90;98.80;;;;;;4971128;28;20479;-86
2022/02/13 07:01:48;;;;;;;9.77;5.00;;;2.90;98.60;;;;;;4975987;28;20472;-89
2022/02/13 07:04:35;;;;;;;8.50;6.07;;;3.00;98.80;;;;;;4984326;28;20469;-87
2022/02/13 07:07:27;;;;;;;7.03;4.80;;;3.00;99.00;;;;;;4973453;28;20572;-86
2022/02/13 07:10:14;;;;;;;6.50;5.30;;;3.00;99.00;;;;;;4963442;28;20549;-86
2022/02/13 07:12:58;;;;;;;11.97;5.43;;;2.80;99.00;;;;;;4970849;28;20461;-85
2022/02/13 07:15:56;;;;;;;7.93;5.53;;;2.90;99.10;;;;;;4992288;28;20459;-86
2022/02/13 07:18:35;;;;;;;7.07;5.70;;;3.20;98.20;;;;;;4946487;28;20551;-85
2022/02/13 07:21:28;;;;;;;5.77;3.83;;;3.10;97.90;;;;;;4961250;28;20507;-84
2022/02/13 07:24:09;;;;;;;6.47;4.70;;;3.60;97.90;;;;;;4971642;28;20466;-87
2022/02/13 07:26:50;;;;;;;7.50;5.53;;;5.30;94.50;;;;;;4974871;28;20490;-85
2022/02/13 07:29:33;;;;;;;8.77;4.97;;;6.40;92.30;;;;;;4962676;28;21020;-87
2022/02/13 07:32:18;;;;;;;5.50;4.67;;;7.30;89.60;;;;;;4966107;28;20465;-88
2022/02/13 07:34:58;;;;;;;8.33;5.10;;;7.90;85.80;;;;;;4973812;28;20498;-90
2022/02/13 07:37:48;;;;;;;5.47;5.03;;;7.90;84.20;;;;;;4963399;28;20461;-89
2022/02/13 07:40:44;;;;;;;6.73;5.00;;;8.80;82.90;;;;;;4976299;28;20489;-91
2022/02/13 07:43:52;;;;;;;6.53;5.83;;;8.50;78.00;;;;;;4980830;28;20467;-88
2022/02/13 07:46:45;;;;;;;6.47;5.47;;;7.80;79.90;;;;;;4966610;28;20490;-86
2022/02/13 07:49:37;;;;;;;8.50;5.00;;;7.40;81.50;;;;;;4976162;28;20508;-84
2022/02/13 07:52:33;;;;;;;5.43;4.40;;;6.90;83.80;;;;;;4970160;28;20463;-89
2022/02/13 07:55:33;;;;;;;6.07;4.73;;;6.70;85.40;;;;;;4977279;28;20508;-88
2022/02/13 07:58:19;;;;;;;;;;;;;;;;;;;;;
2022/02/13 08:01:17;;;;;;;5.60;4.93;;;6.70;86.90;;;;;;4973798;28;20495;-85
2022/02/13 08:04:02;;;;;;;5.60;4.70;;;6.80;86.00;;;;;;4980415;28;20464;-88
2022/02/13 08:06:49;;;;;;;6.40;4.90;;;6.90;85.10;;;;;;4962115;28;20485;-87
2022/02/13 08:10:11;;;;;;;8.30;5.63;;;6.20;85.60;;;;;;4985525;23;20505;-85
2022/02/13 08:13:02;;;;;;;;;;;;;;;;;;;;;
2022/02/13 08:15:51;;;;;;;6.93;4.30;;;4.90;90.60;;;;;;4965280;28;20452;-86
2022/02/13 08:18:48;;;;;;;6.40;4.43;;;5.10;91.20;;;;;;4997242;28;20483;-86
2022/02/13 08:24:54;;;;;;;5.43;4.10;;;5.10;91.40;;;;;;4974799;28;20471;-87
2022/02/13 08:33:59;;;;;;;6.53;4.20;;;4.90;91.60;;;;;;4966573;28;20450;-86
2022/02/13 08:37:06;;;;;;;4.33;3.93;;;4.70;92.00;;;;;;4981147;28;20456;-86
2022/02/13 08:39:52;;;;;;;5.80;4.70;;;4.80;92.20;;;;;;4943998;28;21017;-87
2022/02/13 08:42:38;;;;;;;5.63;4.30;;;4.90;91.90;;;;;;4967201;28;20488;-85
2022/02/13 08:45:38;;;;;;;5.70;4.63;;;5.50;91.60;;;;;;4985617;28;20472;-88
2022/02/13 08:48:22;;;;;;;6.00;5.37;;;5.40;90.80;;;;;;4978115;28;20462;-86
2022/02/13 08:50:58;;;;;;;9.80;4.90;;;5.30;91.20;;;;;;4981486;28;20520;-85
2022/02/13 08:53:51;;;;;;;5.87;4.60;;;5.30;91.30;;;;;;4980299;28;20460;-87
2022/02/13 08:56:32;;;;;;;6.53;4.30;;;5.50;90.60;;;;;;4980513;28;20888;-88
2022/02/13 08:59:22;;;;;;;5.23;4.70;;;5.60;90.60;;;;;;4973711;28;20579;-87
2022/02/13 09:02:08;;;;;;;6.10;4.10;;;5.70;90.00;;;;;;4978688;28;20485;-87
2022/02/13 09:05:00;;;;;;;;;;;;;;;;;;;;;
2022/02/13 09:07:43;;;;;;;7.67;4.30;;;5.90;89.10;;;;;;4982905;28;20531;-87
2022/02/13 09:10:22;;;;;;;5.40;4.53;;;5.90;89.10;;;;;;4986103;28;20485;-86
2022/02/13 09:12:58;;;;;;;5.10;4.40;;;5.60;90.20;;;;;;4977895;28;20461;-87
2022/02/13 09:15:52;;;;;;;4.50;4.10;;;5.70;90.30;;;;;;4978013;28;20577;-85
2022/02/13 09:18:35;;;;;;;7.97;5.30;;;5.90;90.10;;;;;;4982978;28;20460;-86
2022/02/13 09:21:24;;;;;;;3.83;3.40;;;5.70;90.00;;;;;;4977361;28;20821;-87
2022/02/13 09:24:15;;;;;;;7.70;4.87;;;5.90;89.80;;;;;;4993895;28;20497;-86
2022/02/13 09:26:53;;;;;;;6.50;5.03;;;6.10;88.70;;;;;;4992280;28;21024;-87
2022/02/13 09:29:58;;;;;;;9.03;3.90;;;5.90;88.70;;;;;;4977715;28;20476;-84
2022/02/13 09:32:57;;;;;;;5.40;4.43;;;5.80;89.50;;;;;;4979941;28;20828;-85
2022/02/13 09:35:45;;;;;;;8.13;4.80;;;6.00;89.80;;;;;;4970818;28;20457;-89
2022/02/13 09:38:42;;;;;;;5.90;5.07;;;6.20;88.70;;;;;;4990705;28;21047;-87
2022/02/13 09:41:24;;;;;;;8.57;4.90;;;5.90;89.20;;;;;;4996187;28;20460;-87
2022/02/13 09:44:17;;;;;;;5.63;4.30;;;6.20;88.90;;;;;;4983674;28;20460;-86
2022/02/13 09:46:56;;;;;;;5.63;4.30;;;6.30;88.20;;;;;;4979673;28;20539;-87
2022/02/13 09:49:39;;;;;;;3.93;3.60;;;6.50;86.80;;;;;;4978308;28;20571;-86
2022/02/13 09:52:17;;;;;;;5.17;4.10;;;6.60;86.00;;;;;;4982368;28;20536;-87
2022/02/13 09:55:31;;;;;;;4.57;3.80;;;6.50;86.30;;;;;;4978796;28;20465;-87
2022/02/13 09:58:24;;;;;;;7.70;4.20;;;6.60;86.50;;;;;;4987682;23;20499;-87
2022/02/13 10:01:30;;;;;;;5.63;4.63;;;6.60;85.80;;;;;;4881880;29;20548;-86
2022/02/13 10:04:37;;;;;;;6.63;4.10;;;6.90;86.20;;;;;;4880847;29;20463;-89
2022/02/13 10:08:09;;;;;;;3.80;3.50;;;8.70;80.60;;;;;;4844693;29;20502;-89
2022/02/13 10:23:23;;;;;;;4.53;3.63;;;10.20;68.70;;;;;;4774414;30;20473;-87
2022/02/13 10:27:30;;;;;;;5.30;4.00;;;10.20;68.00;;;;;;4867375;29;20462;-86
2022/02/13 10:30:36;;;;;;;5.83;4.70;;;9.80;70.00;;;;;;4882084;29;20460;-86
2022/02/13 10:33:53;;;;;;;4.73;4.17;;;9.00;71.90;;;;;;4909156;29;20504;-86
2022/02/13 10:37:08;;;;;;;4.90;4.30;;;8.70;74.30;;;;;;4854613;29;20451;-87
2022/02/13 10:40:44;;;;;;;5.60;4.30;;;8.50;75.70;;;;;;4856032;29;20462;-87
2022/02/13 10:43:58;;;;;;;5.03;4.50;;;8.50;76.70;;;;;;4837711;29;20475;-87
2022/02/13 10:47:13;;;;;;;5.13;4.43;;;8.50;77.20;;;;;;4856774;29;20512;-88
2022/02/13 10:50:34;;;;;;;4.47;4.07;;;8.40;78.30;;;;;;4853103;29;20466;-88
2022/02/13 10:53:40;;;;;;;5.47;4.03;;;8.40;78.60;;;;;;4853101;29;20462;-87
2022/02/13 10:56:34;;;;;;;8.10;4.40;;;8.60;78.60;;;;;;4858294;29;20534;-87
2022/02/13 10:59:27;;;;;;;4.60;3.93;;;8.80;78.20;;;;;;4823448;29;20479;-91
2022/02/13 11:02:03;;;;;;;5.00;4.50;;;8.70;77.80;;;;;;5152820;23;20495;-89
2022/02/13 11:04:37;;;;;;;5.60;3.97;;;8.70;78.70;;;;;;4968365;28;20456;-87
2022/02/13 11:07:13;;;;;;;4.73;4.20;;;8.60;79.10;;;;;;4974761;28;20485;-89
2022/02/13 11:10:24;;;;;;;6.33;4.87;;;8.60;80.20;;;;;;4964172;28;20480;-85
2022/02/13 11:13:30;;;;;;;4.63;3.40;;;8.60;80.10;;;;;;4969442;28;20524;-87
2022/02/13 11:15:59;;;;;;;4.73;4.20;;;9.20;78.30;;;;;;4989135;28;20889;-87
2022/02/13 11:19:23;;;;;;;;;;;;;;;;;;;;;
2022/02/13 11:22:03;;;;;;;7.43;3.80;;;9.30;77.90;;;;;;4958737;29;20475;-87
2022/02/13 11:28:42;;;;;;;4.77;4.00;;;9.50;77.70;;;;;;4941232;28;20479;-87
2022/02/13 11:31:45;;;;;;;4.00;3.60;;;9.20;78.90;;;;;;4984636;28;20449;-87
2022/02/13 11:34:29;;;;;;;4.43;4.00;;;9.50;78.90;;;;;;4974824;28;20483;-88
2022/02/13 11:37:30;;;;;;;;;;;;;;;;;;;;;
2022/02/13 11:41:00;;;;;;;4.70;4.10;;;9.80;78.60;;;;;;4959717;28;20457;-88
2022/02/13 11:44:27;;;;;;;;;;;;;;;;;;;;;
2022/02/13 11:47:55;;;;;;;6.40;5.00;;;10.00;76.20;;;;;;4920096;29;20485;-87
2022/02/13 11:51:31;;;;;;;4.47;4.07;;;10.10;76.00;;;;;;4923542;29;20858;-87
2022/02/13 11:59:09;;;;;;;7.20;4.33;;;10.10;76.70;;;;;;4846441;29;20470;-87
2022/02/13 12:02:24;;;;;;;5.83;4.33;;;10.10;77.40;;;;;;4856426;29;20476;-87
2022/02/13 12:05:30;;;;;;;5.40;4.50;;;10.40;76.90;;;;;;4881076;29;20457;-89
2022/02/13 12:11:22;;;;;;;3.90;3.50;;;10.40;76.30;;;;;;4875337;29;20472;-87
2022/02/13 12:14:17;;;;;;;5.77;4.60;;;10.50;76.10;;;;;;4912098;29;20487;-88
2022/02/13 12:17:00;;;;;;;7.20;4.70;;;10.50;75.70;;;;;;4896061;29;20474;-86
2022/02/13 12:20:35;;;;;;;5.33;3.70;;;10.60;75.70;;;;;;4912484;29;20462;-86
2022/02/13 12:23:31;;;;;;;4.43;4.00;;;10.60;75.40;;;;;;4926777;29;20480;-87
2022/02/13 12:26:41;;;;;;;;;;;;;;;;;;;;;
2022/02/13 12:29:54;;;;;;;5.47;4.10;;;10.60;75.10;;;;;;4965968;28;20465;-86
2022/02/13 12:33:16;;;;;;;5.87;4.40;;;10.90;76.40;;;;;;4964888;28;20448;-86
2022/02/13 12:36:26;;;;;;;3.80;3.50;;;10.90;76.50;;;;;;4964779;28;20454;-87
2022/02/13 12:39:08;;;;;;;4.57;4.00;;;11.10;76.30;;;;;;4962971;28;20539;-86
2022/02/13 12:42:11;;;;;;;5.20;4.33;;;11.10;76.70;;;;;;4961917;28;20491;-88
2022/02/13 12:45:32;;;;;;;5.17;3.77;;;11.20;76.40;;;;;;4974939;28;20545;-87
2022/02/13 12:48:51;;;;;;;8.90;5.07;;;11.40;76.10;;;;;;4974522;28;20488;-87
2022/02/13 12:51:54;;;;;;;5.10;3.60;;;11.40;75.70;;;;;;4929573;28;20526;-86
2022/02/13 12:55:10;;;;;;;6.03;4.07;;;11.60;73.90;;;;;;4930863;28;20452;-87
2022/02/13 12:57:43;;;;;;;7.83;3.93;;;11.70;74.00;;;;;;4964609;28;20480;-85
2022/02/13 13:00:30;;;;;;;4.37;3.00;;;11.80;73.30;;;;;;4964477;28;21140;-85
2022/02/13 13:03:57;;;;;;;5.20;4.00;;;11.90;73.90;;;;;;4970285;28;20458;-87
2022/02/13 13:07:09;;;;;;;;;;;;;;;;;;;;;
2022/02/13 13:10:37;;;;;;;3.90;3.50;;;12.20;74.40;;;;;;4957615;28;20472;-86
2022/02/13 13:13:33;;;;;;;3.67;3.37;;;12.30;74.70;;;;;;4961479;28;21060;-83
2022/02/13 13:16:41;;;;;;;6.30;4.30;;;12.30;75.50;;;;;;4971428;28;20485;-86
2022/02/13 13:19:31;;;;;;;6.50;4.57;;;12.40;76.30;;;;;;4974588;28;20484;-86
2022/02/13 13:22:34;;;;;;;4.53;3.80;;;12.30;76.80;;;;;;4959312;28;20472;-85
2022/02/13 13:25:44;;;;;;;7.63;4.80;;;12.50;77.20;;;;;;4966911;28;20488;-87
2022/02/13 13:28:43;;;;;;;6.70;4.60;;;12.30;78.20;;;;;;4963482;28;20507;-85
2022/02/13 13:36:13;;;;;;;7.47;4.63;;;12.20;80.10;;;;;;4970849;28;20902;-86
2022/02/13 13:40:04;;;;;;;5.60;4.17;;;12.20;80.70;;;;;;4961808;28;20460;-86
2022/02/13 13:43:32;;;;;;;;;;;;;;;;;;;;;
2022/02/13 13:53:51;;;;;;;5.53;4.97;;;12.50;81.40;;;;;;4922694;29;20541;-88
2022/02/13 13:57:36;;;;;;;8.63;4.30;;;12.50;81.60;;;;;;4918543;29;20437;-85
2022/02/13 14:01:17;;;;;;;6.70;3.90;;;12.50;82.20;;;;;;4901689;29;20504;-86
2022/02/13 14:04:20;;;;;;;4.03;3.60;;;12.60;82.10;;;;;;4929726;29;20533;-87
2022/02/13 14:07:43;;;;;;;3.13;2.87;;;12.60;82.90;;;;;;4903466;29;20498;-87
2022/02/13 14:11:40;;;;;;;;;;;;;;;;;;;;;
2022/02/13 14:14:34;;;;;;;5.27;3.90;;;12.50;83.10;;;;;;4948393;28;20453;-88
2022/02/13 14:17:55;;;;;;;9.03;3.50;;;12.60;83.10;;;;;;4967444;28;20470;-85
2022/02/13 14:25:06;;;;;;;4.10;2.90;;;12.70;82.50;;;;;;4885848;29;20495;-85
2022/02/13 14:36:00;;;;;;;;;;;;;;;;;;;;;
2022/02/13 14:39:35;;;;;;;;;;;;;;;;;;;;;
2022/02/13 14:42:45;;;;;;;6.40;2.87;;;12.80;80.90;;;;;;4881323;29;20514;-86
2022/02/13 14:45:51;;;;;;;4.13;3.73;;;12.90;80.20;;;;;;4895835;29;20574;-88
2022/02/13 14:49:07;;;;;;;;;;;;;;;;;;;;;
2022/02/13 14:55:39;;;;;;;4.97;3.10;;;12.80;80.50;;;;;;4887440;29;21048;-85
2022/02/13 14:59:00;;;;;;;5.70;3.50;;;12.70;81.00;;;;;;4961433;23;20510;-83
2022/02/13 15:06:26;;;;;;;7.23;3.50;;;12.90;79.90;;;;;;4914664;29;20907;-87
2022/02/13 15:09:43;;;;;;;5.30;3.50;;;12.90;80.40;;;;;;4942385;29;20465;-87
2022/02/13 15:16:53;;;;;;;;;;;;;;;;;;;;;
2022/02/13 15:20:03;;;;;;;;;;;;;;;;;;;;;
2022/02/13 15:23:36;;;;;;;4.73;3.13;;;12.80;79.00;;;;;;4899549;29;20456;-88
2022/02/13 15:41:22;;;;;;;;;;;;;;;;;;;;;
2022/02/13 15:49:00;;;;;;;5.03;4.53;;;12.30;82.60;;;;;;4922328;29;20569;-88
2022/02/13 15:59:36;;;;;;;7.00;5.80;;;11.80;89.00;;;;;;4918520;29;20484;-86
2022/02/13 16:02:21;;;;;;;7.20;5.03;;;11.60;90.00;;;;;;4947306;23;20510;-83
2022/02/13 16:04:50;;;;;;;5.57;4.23;;;11.70;90.00;;;;;;4920378;29;20455;-83
2022/02/13 16:07:18;;;;;;;6.43;5.70;;;11.60;89.80;;;;;;4922958;29;21240;-83
2022/02/13 16:09:46;;;;;;;8.07;5.13;;;11.60;90.00;;;;;;4931057;29;20485;-83
2022/02/13 16:12:14;;;;;;;6.37;5.50;;;11.40;90.20;;;;;;4937047;29;20542;-83
2022/02/13 16:14:42;;;;;;;8.40;5.37;;;11.40;90.60;;;;;;4917233;29;20496;-83
2022/02/13 16:17:09;;;;;;;11.10;5.30;;;11.50;90.40;;;;;;4928899;29;20474;-83
2022/02/13 16:19:36;;;;;;;8.70;6.97;;;11.50;89.90;;;;;;4911874;29;20590;-84
2022/02/13 16:22:04;;;;;;;6.60;5.10;;;11.40;90.10;;;;;;4897945;29;20496;-83
2022/02/13 16:24:32;;;;;;;7.70;5.33;;;11.40;90.40;;;;;;4900613;29;20538;-84
2022/02/13 16:26:59;;;;;;;7.40;3.70;;;11.40;90.20;;;;;;4902161;29;20464;-85
2022/02/13 16:29:31;;;;;;;10.40;5.83;;;11.40;90.00;;;;;;4904749;29;20488;-83
2022/02/13 16:32:01;;;;;;;8.60;6.70;;;11.30;90.10;;;;;;4926595;29;20488;-84
2022/02/13 16:34:28;;;;;;;6.80;5.33;;;11.10;90.30;;;;;;4905373;29;20473;-82
2022/02/13 16:36:57;;;;;;;6.27;5.20;;;11.30;90.40;;;;;;4931395;29;20539;-83
2022/02/13 16:39:24;;;;;;;10.17;5.83;;;11.20;90.40;;;;;;4892881;29;20542;-82
2022/02/13 16:41:51;;;;;;;7.70;5.80;;;11.10;90.40;;;;;;4896904;29;20521;-85
2022/02/13 16:44:19;;;;;;;8.97;5.97;;;11.10;90.60;;;;;;4919568;29;20468;-85
2022/02/13 16:46:46;;;;;;;8.17;5.20;;;11.10;90.60;;;;;;4891864;29;20983;-84
2022/02/13 16:49:13;;;;;;;7.10;6.40;;;11.20;90.40;;;;;;4905252;29;20501;-84
2022/02/13 16:51:40;;;;;;;9.70;6.20;;;11.10;90.20;;;;;;4919656;29;20508;-85
2022/02/13 16:54:07;;;;;;;8.93;5.20;;;11.00;90.40;;;;;;4896271;29;20459;-85
2022/02/13 16:56:34;;;;;;;9.33;4.50;;;11.10;90.20;;;;;;4910494;29;20492;-84
2022/02/13 16:59:01;;;;;;;8.47;5.70;;;11.00;90.30;;;;;;4902791;29;20467;-84
2022/02/13 17:01:32;;;;;;;8.00;5.70;;;11.10;90.00;;;;;;4889121;29;21048;-85
2022/02/13 17:03:59;;;;;;;8.50;5.50;;;10.90;90.40;;;;;;4897352;29;20472;-81
2022/02/13 17:06:26;;;;;;;6.17;5.20;;;10.90;90.30;;;;;;4916488;29;20973;-83
2022/02/13 17:08:53;;;;;;;9.30;6.40;;;11.00;90.10;;;;;;4890884;29;20529;-82
2022/02/13 17:11:20;;;;;;;7.97;5.40;;;11.10;90.00;;;;;;4899654;29;20467;-84
2022/02/13 17:13:47;;;;;;;7.50;6.40;;;11.10;90.10;;;;;;4893047;29;20507;-84
2022/02/13 17:16:17;;;;;;;8.03;5.77;;;11.00;90.20;;;;;;4889840;29;20467;-84